createdAt,value
2023-03-17T00:39:42.021Z,18.48
2023-03-17T00:41:41.984Z,18.36
2023-03-17T00:42:41.971Z,18.35
2023-03-17T00:43:41.939Z,18.43
2023-03-17T00:44:41.926Z,18.41
2023-03-17T00:45:41.931Z,18.43
2023-03-17T00:46:42.184Z,18.38
2023-03-17T00:47:41.865Z,18.44
2023-03-17T00:48:41.874Z,18.43
2023-03-17T00:49:41.830Z,18.47
2023-03-17T02:07:40.495Z,18.50
2023-03-17T02:59:40.220Z,17.75
2023-03-17T03:00:40.195Z,17.58
2023-03-17T03:01:40.218Z,17.26
2023-03-17T03:02:40.267Z,17.03
2023-03-17T03:03:40.153Z,16.86
2023-03-17T03:04:40.164Z,16.62
2023-03-17T03:05:40.123Z,16.62
2023-03-17T03:06:40.118Z,16.45
2023-03-17T03:07:40.111Z,16.44
2023-03-17T03:08:40.088Z,16.30
2023-03-17T03:09:40.082Z,16.13
2023-03-17T03:10:40.069Z,16.15
2023-03-17T03:11:40.059Z,16.07
2023-03-17T03:12:40.040Z,16.04
2023-03-17T03:13:40.027Z,15.84
2023-03-17T03:14:40.023Z,15.88
2023-03-17T03:15:40.038Z,15.73
2023-03-17T03:16:39.974Z,15.70
2023-03-17T03:17:39.963Z,15.63
2023-03-17T03:18:39.933Z,15.57
2023-03-17T03:19:39.924Z,15.51
2023-03-17T03:20:39.914Z,15.47
2023-03-17T03:21:39.874Z,15.34
2023-03-17T03:22:39.905Z,15.36
2023-03-17T03:23:39.851Z,15.31
2023-03-17T03:24:39.870Z,15.28
2023-03-17T03:25:39.841Z,15.18
2023-03-17T03:26:39.824Z,15.15
2023-03-17T03:27:39.820Z,15.08
2023-03-17T03:28:39.822Z,15.12
2023-03-17T03:29:39.800Z,15.16
2023-03-17T03:30:39.784Z,15.13
2023-03-17T03:31:39.770Z,15.00
2023-03-17T03:32:39.771Z,15.02
2023-03-17T03:33:39.765Z,14.99
2023-03-17T03:34:39.771Z,14.93
2023-03-17T03:35:39.741Z,14.98
2023-03-17T03:36:39.734Z,15.00
2023-03-17T03:37:39.703Z,14.98
2023-03-17T03:38:39.701Z,14.93
2023-03-17T03:39:39.697Z,14.95
2023-03-17T03:40:39.711Z,14.93
2023-03-17T03:41:39.694Z,14.85
2023-03-17T03:42:39.672Z,14.85
2023-03-17T03:43:39.669Z,14.84
2023-03-17T03:44:39.674Z,14.84
2023-03-17T03:45:39.651Z,14.92
2023-03-17T03:46:39.718Z,14.81
2023-03-17T03:47:39.635Z,14.82
2023-03-17T03:48:39.625Z,14.79
2023-03-17T03:49:39.620Z,14.73
2023-03-17T03:50:39.614Z,14.84
2023-03-17T03:51:39.609Z,14.73
2023-03-17T03:52:39.588Z,14.71
2023-03-17T03:53:39.585Z,14.68
2023-03-17T03:54:39.590Z,14.63
2023-03-17T03:55:39.588Z,14.63
2023-03-17T03:56:39.554Z,14.64
2023-03-17T03:57:39.552Z,14.71
2023-03-17T03:58:39.533Z,14.64
2023-03-17T03:59:39.524Z,14.61
2023-03-17T04:00:39.523Z,14.61
2023-03-17T04:01:39.496Z,14.59
2023-03-17T04:02:39.519Z,14.56
2023-03-17T04:03:39.493Z,14.64
2023-03-17T04:04:39.599Z,14.64
2023-03-17T04:05:39.470Z,14.65
2023-03-17T04:06:39.471Z,14.69
2023-03-17T04:07:39.445Z,14.65
2023-03-17T04:08:39.448Z,14.61
2023-03-17T04:09:39.452Z,14.54
2023-03-17T04:10:39.452Z,14.59
2023-03-17T04:11:39.440Z,14.64
2023-03-17T04:12:39.437Z,14.63
2023-03-17T04:13:39.417Z,14.54
2023-03-17T04:14:39.409Z,14.54
2023-03-17T04:15:39.414Z,14.65
2023-03-17T04:16:41.579Z,14.61
2023-03-17T04:17:39.398Z,14.61
2023-03-17T04:18:39.486Z,14.64
2023-03-17T04:19:39.390Z,14.65
2023-03-17T04:20:39.363Z,14.54
2023-03-17T04:21:39.357Z,14.56
2023-03-17T04:22:39.366Z,14.63
2023-03-17T04:23:39.359Z,14.56
2023-03-17T04:24:39.357Z,14.60
2023-03-17T04:25:39.347Z,14.63
2023-03-17T04:26:39.356Z,14.54
2023-03-17T04:27:39.329Z,14.51
2023-03-17T04:28:39.331Z,14.51
2023-03-17T04:29:39.309Z,14.51
2023-03-17T04:30:39.311Z,14.71
2023-03-17T04:31:39.324Z,14.65
2023-03-17T04:32:39.408Z,14.60
2023-03-17T04:33:39.296Z,14.54
2023-03-17T04:34:39.283Z,14.60
2023-03-17T04:35:39.284Z,14.54
2023-03-17T04:36:39.273Z,14.53
2023-03-17T04:37:39.258Z,14.55
2023-03-17T04:38:39.260Z,14.52
2023-03-17T04:39:39.245Z,14.54
2023-03-17T04:40:39.255Z,14.57
2023-03-17T04:41:39.246Z,14.52
2023-03-17T04:42:39.239Z,14.53
2023-03-17T04:43:39.226Z,14.50
2023-03-17T04:44:39.230Z,14.55
2023-03-17T04:45:39.259Z,14.49
2023-03-17T04:46:39.225Z,14.55
2023-03-17T04:47:39.212Z,14.52
2023-03-17T04:48:39.217Z,14.63
2023-03-17T04:49:39.199Z,14.57
2023-03-17T04:50:39.203Z,14.50
2023-03-17T04:51:39.193Z,14.53
2023-03-17T04:52:39.176Z,14.61
2023-03-17T04:53:39.169Z,14.57
2023-03-17T04:54:39.178Z,14.47
2023-03-17T04:55:39.185Z,14.61
2023-03-17T04:56:39.169Z,14.47
2023-03-17T04:57:39.168Z,14.45
2023-03-17T04:58:39.145Z,14.43
2023-03-17T04:59:39.151Z,14.48
2023-03-17T05:00:39.145Z,14.55
2023-03-17T05:01:39.380Z,14.56
2023-03-17T05:02:39.280Z,14.52
2023-03-17T05:03:39.124Z,14.47
2023-03-17T05:04:39.093Z,14.60
2023-03-17T05:05:39.094Z,14.48
2023-03-17T05:06:39.090Z,14.48
2023-03-17T05:07:39.091Z,14.42
2023-03-17T05:08:39.090Z,14.47
2023-03-17T05:09:39.064Z,14.53
2023-03-17T05:10:39.062Z,14.52
2023-03-17T05:11:39.039Z,14.45
2023-03-17T05:12:39.037Z,14.43
2023-03-17T05:13:39.010Z,14.48
2023-03-17T05:14:39.002Z,14.54
2023-03-17T05:15:39.001Z,14.48
2023-03-17T05:16:39.046Z,14.59
2023-03-17T05:17:38.981Z,14.62
2023-03-17T05:18:38.963Z,14.53
2023-03-17T05:19:38.970Z,14.48
2023-03-17T05:20:38.957Z,14.50
2023-03-17T05:21:38.947Z,14.61
2023-03-17T05:22:38.956Z,14.43
2023-03-17T05:23:38.946Z,14.47
2023-03-17T05:24:38.922Z,14.50
2023-03-17T05:25:38.924Z,14.61
2023-03-17T05:26:38.951Z,14.51
2023-03-17T05:27:38.914Z,14.58
2023-03-17T05:28:38.892Z,14.47
2023-03-17T05:29:38.888Z,14.51
2023-03-17T05:30:38.921Z,14.48
2023-03-17T05:31:38.879Z,14.54
2023-03-17T05:32:38.882Z,14.43
2023-03-17T05:33:38.847Z,14.38
2023-03-17T05:34:38.833Z,14.43
2023-03-17T05:35:38.838Z,14.45
2023-03-17T05:36:38.859Z,14.56
2023-03-17T05:37:38.837Z,14.48
2023-03-17T05:38:38.825Z,14.48
2023-03-17T05:39:38.834Z,14.49
2023-03-17T05:40:38.814Z,14.51
2023-03-17T05:41:38.812Z,14.52
2023-03-17T05:42:38.810Z,14.46
2023-03-17T05:43:38.806Z,14.46
2023-03-17T05:44:38.798Z,14.37
2023-03-17T05:45:38.790Z,14.45
2023-03-17T05:46:38.790Z,14.40
2023-03-17T05:47:38.756Z,14.40
2023-03-17T05:48:38.750Z,14.48
2023-03-17T05:49:38.780Z,14.43
2023-03-17T05:50:38.747Z,14.42
2023-03-17T05:51:38.749Z,14.41
2023-03-17T05:52:38.722Z,14.33
2023-03-17T05:53:38.722Z,14.37
2023-03-17T05:54:38.717Z,14.43
2023-03-17T05:55:38.698Z,14.38
2023-03-17T05:56:38.693Z,14.38
2023-03-17T05:57:38.692Z,14.40
2023-03-17T05:58:38.670Z,14.46
2023-03-17T05:59:38.685Z,14.43
2023-03-17T06:00:38.666Z,14.46
2023-03-17T06:01:38.667Z,14.46
2023-03-17T06:02:38.682Z,14.37
2023-03-17T06:03:38.738Z,14.46
2023-03-17T06:04:38.653Z,14.52
2023-03-17T06:05:38.652Z,14.40
2023-03-17T06:06:38.647Z,14.43
2023-03-17T06:07:51.684Z,14.48
2023-03-17T06:08:39.681Z,14.52
2023-03-17T06:09:38.641Z,14.48
2023-03-17T06:10:38.634Z,14.44
2023-03-17T06:11:38.631Z,14.46
2023-03-17T06:12:38.629Z,14.43
2023-03-17T06:13:38.623Z,14.35
2023-03-17T06:14:38.614Z,14.41
2023-03-17T06:15:38.640Z,14.48
2023-03-17T06:16:38.610Z,14.78
2023-03-17T06:17:38.615Z,15.07
2023-03-17T06:18:38.596Z,15.03
2023-03-17T06:19:38.601Z,14.99
2023-03-17T06:20:38.590Z,15.03
2023-03-17T06:21:38.600Z,15.10
2023-03-17T06:22:42.337Z,15.11
2023-03-17T06:23:39.569Z,15.02
2023-03-17T06:24:38.564Z,15.12
2023-03-17T06:25:38.566Z,14.96
2023-03-17T06:26:38.560Z,15.10
2023-03-17T06:27:38.549Z,15.23
2023-03-17T06:28:38.531Z,15.12
2023-03-17T06:29:38.537Z,15.18
2023-03-17T06:30:40.627Z,15.26
2023-03-17T06:31:38.539Z,15.55
2023-03-17T06:32:38.589Z,15.82
2023-03-17T06:33:38.526Z,15.80
2023-03-17T06:34:38.516Z,16.22
2023-03-17T06:35:38.560Z,16.49
2023-03-17T06:36:38.666Z,16.82
2023-03-17T06:37:38.521Z,17.00
2023-03-17T06:38:38.470Z,17.04
2023-03-17T06:39:38.524Z,17.31
2023-03-17T06:40:38.637Z,17.33
2023-03-17T06:41:38.634Z,17.47
2023-03-17T06:42:38.693Z,17.59
2023-03-17T06:43:38.728Z,17.59
2023-03-17T06:44:38.785Z,17.74
2023-03-17T06:45:38.878Z,17.75
2023-03-17T06:46:38.926Z,17.78
2023-03-17T06:47:38.937Z,17.80
2023-03-17T06:48:39.024Z,18.13
2023-03-17T06:49:39.060Z,18.13
2023-03-17T06:50:39.113Z,18.81
2023-03-17T06:51:39.159Z,18.19
2023-03-17T06:52:39.225Z,18.02
2023-03-17T06:53:39.374Z,17.43
2023-03-17T06:54:39.325Z,17.81
2023-03-17T06:55:39.371Z,17.47
2023-03-17T06:56:39.425Z,17.61
2023-03-17T06:57:39.501Z,17.85
2023-03-17T06:58:39.549Z,17.94
2023-03-17T06:59:39.585Z,17.94
2023-03-17T07:00:39.654Z,18.12
2023-03-17T07:01:39.766Z,17.85
2023-03-17T07:02:39.778Z,18.10
2023-03-17T07:03:39.816Z,17.96
2023-03-17T07:04:39.922Z,17.31
2023-03-17T07:05:39.928Z,17.39
2023-03-17T07:06:39.981Z,17.51
2023-03-17T07:07:40.058Z,17.53
2023-03-17T07:08:40.113Z,17.62
2023-03-17T07:09:40.164Z,17.27
2023-03-17T07:10:40.222Z,17.67
2023-03-17T07:11:40.312Z,17.58
2023-03-17T07:12:40.349Z,17.84
2023-03-17T07:13:40.405Z,18.00
2023-03-17T07:14:40.453Z,18.05
2023-03-17T07:15:40.501Z,18.15
2023-03-17T07:16:40.588Z,18.24
2023-03-17T07:17:40.516Z,18.45
2023-03-17T07:18:40.489Z,18.69
2023-03-17T07:19:40.489Z,18.76
2023-03-17T07:20:40.474Z,18.93
2023-03-17T07:21:40.473Z,19.04
2023-03-17T07:22:40.472Z,19.20
2023-03-17T07:23:41.424Z,19.41
2023-03-17T07:24:40.439Z,19.45
2023-03-17T07:25:40.430Z,19.61
2023-03-17T07:26:40.414Z,19.63
2023-03-17T07:27:40.418Z,19.60
2023-03-17T07:28:40.415Z,19.62
2023-03-17T07:29:40.403Z,19.68
2023-03-17T07:30:40.396Z,19.87
2023-03-17T07:31:41.303Z,19.94
2023-03-17T07:32:40.372Z,20.12
2023-03-17T07:33:40.326Z,20.02
2023-03-17T07:34:40.341Z,19.91
2023-03-17T07:35:40.318Z,20.04
2023-03-17T07:36:40.299Z,20.14
2023-03-17T07:37:40.288Z,19.92
2023-03-17T07:38:40.281Z,19.94
2023-03-17T07:39:40.266Z,19.70
2023-03-17T07:40:40.277Z,20.10
2023-03-17T07:41:40.270Z,20.26
2023-03-17T07:42:40.232Z,20.00
2023-03-17T07:43:40.237Z,20.15
2023-03-17T07:44:40.366Z,20.10
2023-03-17T07:45:40.240Z,19.99
2023-03-17T07:46:40.183Z,20.38
2023-03-17T07:47:40.162Z,20.31
2023-03-17T07:48:40.160Z,20.43
2023-03-17T07:49:42.135Z,20.28
2023-03-17T07:50:40.144Z,20.40
2023-03-17T07:51:40.132Z,20.46
2023-03-17T07:52:40.113Z,20.45
2023-03-17T07:53:40.088Z,20.42
2023-03-17T07:54:42.755Z,20.40
2023-03-17T07:55:40.109Z,20.42
2023-03-17T07:56:40.054Z,20.40
2023-03-17T07:57:40.134Z,20.57
2023-03-17T07:58:40.055Z,20.61
2023-03-17T07:59:40.089Z,20.61
2023-03-17T08:00:40.031Z,20.60
2023-03-17T08:01:40.080Z,20.59
2023-03-17T08:02:40.119Z,20.54
2023-03-17T08:03:41.453Z,20.48
2023-03-17T08:04:39.987Z,20.46
2023-03-17T08:05:39.957Z,20.39
2023-03-17T08:06:39.960Z,20.42
2023-03-17T08:07:39.923Z,20.39
2023-03-17T08:08:39.900Z,20.34
2023-03-17T08:09:39.904Z,20.42
2023-03-17T08:10:39.910Z,20.32
2023-03-17T08:11:39.869Z,20.30
2023-03-17T08:12:39.860Z,20.22
2023-03-17T08:13:39.854Z,20.19
2023-03-17T08:14:39.846Z,20.23
2023-03-17T08:15:39.836Z,20.12
2023-03-17T08:16:39.934Z,20.10
2023-03-17T08:17:39.834Z,20.09
2023-03-17T08:18:39.785Z,20.11
2023-03-17T08:19:39.816Z,20.05
2023-03-17T08:20:39.783Z,20.08
2023-03-17T08:21:39.784Z,19.95
2023-03-17T08:22:39.779Z,19.92
2023-03-17T08:23:39.799Z,19.92
2023-03-17T08:24:39.779Z,19.89
2023-03-17T08:25:39.741Z,19.89
2023-03-17T08:26:39.709Z,19.86
2023-03-17T08:27:39.679Z,19.82
2023-03-17T08:28:39.649Z,19.73
2023-03-17T08:29:39.651Z,19.73
2023-03-17T08:30:40.180Z,19.71
2023-03-17T08:31:39.625Z,19.67
2023-03-17T08:32:39.664Z,19.65
2023-03-17T08:33:39.568Z,19.62
2023-03-17T08:34:39.570Z,19.59
2023-03-17T08:35:39.645Z,20.16
2023-03-17T08:36:39.552Z,20.35
2023-03-17T08:37:39.515Z,20.05
2023-03-17T08:38:39.499Z,19.71
2023-03-17T08:39:39.484Z,19.71
2023-03-17T08:40:39.453Z,19.58
2023-03-17T08:41:39.437Z,19.74
2023-03-17T08:42:39.422Z,19.68
2023-03-17T08:43:39.415Z,19.60
2023-03-17T08:44:39.406Z,19.67
2023-03-17T08:45:39.409Z,19.41
2023-03-17T08:46:39.375Z,19.46
2023-03-17T08:47:39.350Z,19.36
2023-03-17T08:48:39.348Z,19.28
2023-03-17T08:49:39.326Z,19.28
2023-03-17T08:50:39.309Z,19.19
2023-03-17T08:51:39.294Z,19.19
2023-03-17T08:52:39.271Z,19.22
2023-03-17T08:53:39.325Z,19.15
2023-03-17T08:54:39.222Z,19.16
2023-03-17T08:55:39.199Z,19.16
2023-03-17T08:56:39.199Z,19.06
2023-03-17T08:57:39.169Z,19.03
2023-03-17T08:58:39.147Z,19.06
2023-03-17T08:59:39.134Z,18.89
2023-03-17T09:00:39.094Z,18.98
2023-03-17T09:01:39.168Z,19.08
2023-03-17T09:02:39.116Z,19.07
2023-03-17T09:03:39.035Z,19.03
2023-03-17T09:04:40.132Z,19.13
2023-03-17T09:05:39.007Z,19.11
2023-03-17T09:06:44.086Z,19.11
2023-03-17T09:07:40.056Z,19.07
2023-03-17T09:08:38.959Z,19.10
2023-03-17T09:09:38.912Z,19.11
2023-03-17T09:10:38.897Z,19.13
2023-03-17T09:11:38.899Z,19.16
2023-03-17T09:12:38.854Z,19.08
2023-03-17T09:13:38.838Z,19.12
2023-03-17T09:14:43.833Z,19.13
2023-03-17T09:15:39.984Z,19.04
2023-03-17T09:16:38.785Z,19.20
2023-03-17T09:17:38.757Z,19.09
2023-03-17T09:18:38.726Z,19.15
2023-03-17T09:19:38.740Z,19.14
2023-03-17T09:20:38.702Z,19.18
2023-03-17T09:21:39.431Z,19.23
2023-03-17T09:22:38.688Z,19.23
2023-03-17T09:23:38.631Z,19.29
2023-03-17T09:24:38.604Z,19.33
2023-03-17T09:25:38.589Z,19.28
2023-03-17T09:26:38.584Z,19.44
2023-03-17T09:27:38.525Z,19.33
2023-03-17T09:28:38.501Z,19.51
2023-03-17T09:29:38.466Z,19.42
2023-03-17T09:30:38.483Z,19.30
2023-03-17T09:31:38.512Z,18.52
2023-03-17T09:32:38.464Z,17.87
2023-03-17T09:33:38.380Z,17.56
2023-03-17T09:34:38.376Z,16.72
2023-03-17T09:35:38.421Z,15.68
2023-03-17T09:36:38.357Z,15.66
2023-03-17T09:37:38.313Z,15.34
2023-03-17T09:38:38.298Z,14.91
2023-03-17T09:39:38.276Z,14.76
2023-03-17T09:40:38.261Z,14.93
2023-03-17T09:41:38.218Z,15.06
2023-03-17T09:42:38.212Z,15.06
2023-03-17T09:43:38.210Z,15.04
2023-03-17T09:44:38.183Z,15.08
2023-03-17T09:45:38.162Z,15.05
2023-03-17T09:46:39.071Z,15.21
2023-03-17T09:47:38.123Z,15.19
2023-03-17T09:48:38.115Z,15.13
2023-03-17T09:49:38.090Z,15.02
2023-03-17T09:50:38.129Z,14.72
2023-03-17T09:51:38.080Z,14.81
2023-03-17T09:52:38.058Z,14.33
2023-03-17T09:53:39.439Z,14.17
2023-03-17T09:54:38.964Z,14.31
2023-03-17T09:55:38.005Z,14.12
2023-03-17T09:56:38.013Z,14.29
2023-03-17T09:57:37.991Z,14.25
2023-03-17T09:58:37.967Z,14.13
2023-03-17T09:59:37.946Z,13.78
2023-03-17T10:00:37.925Z,13.99
2023-03-17T10:01:38.003Z,13.97
2023-03-17T10:02:37.906Z,14.13
2023-03-17T10:03:38.439Z,14.01
2023-03-17T10:04:37.876Z,13.89
2023-03-17T10:05:37.897Z,14.08
2023-03-17T10:06:37.882Z,13.90
2023-03-17T10:07:37.860Z,14.04
2023-03-17T10:08:37.859Z,13.77
2023-03-17T10:09:37.846Z,13.94
2023-03-17T10:10:37.838Z,13.89
2023-03-17T10:11:37.830Z,13.97
2023-03-17T10:12:37.830Z,13.97
2023-03-17T10:13:37.802Z,13.83
2023-03-17T10:14:37.799Z,13.84
2023-03-17T10:15:37.795Z,13.76
2023-03-17T10:16:37.825Z,13.83
2023-03-17T10:17:37.828Z,13.74
2023-03-17T10:18:37.777Z,13.76
2023-03-17T10:19:37.796Z,13.76
2023-03-17T10:20:37.744Z,13.71
2023-03-17T10:21:37.746Z,13.63
2023-03-17T10:22:37.772Z,13.90
2023-03-17T10:23:37.735Z,13.77
2023-03-17T10:24:37.723Z,13.91
2023-03-17T10:25:37.750Z,13.80
2023-03-17T10:26:37.739Z,13.82
2023-03-17T10:27:37.723Z,14.00
2023-03-17T10:28:37.710Z,14.05
2023-03-17T10:29:37.719Z,14.02
2023-03-17T10:30:37.753Z,14.05
2023-03-17T10:31:37.769Z,13.85
2023-03-17T10:32:37.818Z,14.00
2023-03-17T10:33:37.754Z,13.94
2023-03-17T10:34:38.208Z,13.76
2023-03-17T10:35:37.758Z,13.83
2023-03-17T10:36:37.760Z,13.89
2023-03-17T10:37:37.733Z,14.10
2023-03-17T10:38:37.738Z,14.22
2023-03-17T10:39:37.728Z,13.98
2023-03-17T10:40:37.716Z,14.13
2023-03-17T10:41:37.733Z,15.09
2023-03-17T10:42:37.732Z,14.58
2023-03-17T10:43:37.718Z,14.99
2023-03-17T10:44:37.734Z,15.43
2023-03-17T10:45:40.026Z,16.04
2023-03-17T10:46:37.799Z,17.39
2023-03-17T10:47:37.794Z,18.41
2023-03-17T10:48:37.744Z,18.15
2023-03-17T10:49:37.805Z,18.13
2023-03-17T10:50:37.728Z,18.43
2023-03-17T10:51:37.731Z,18.50
2023-03-17T10:52:37.738Z,18.61
2023-03-17T10:53:37.740Z,18.76
2023-03-17T10:54:37.718Z,18.70
2023-03-17T10:55:37.748Z,19.47
2023-03-17T10:56:37.718Z,19.57
2023-03-17T10:57:37.752Z,19.57
2023-03-17T10:58:37.764Z,19.63
2023-03-17T10:59:37.681Z,19.83
2023-03-17T11:00:37.816Z,19.95
2023-03-17T11:01:37.666Z,19.94
2023-03-17T11:02:37.672Z,20.06
2023-03-17T11:03:37.660Z,20.14
2023-03-17T11:04:37.651Z,20.31
2023-03-17T11:05:39.011Z,20.72
2023-03-17T11:06:37.610Z,20.50
2023-03-17T11:07:37.612Z,20.77
2023-03-17T11:08:37.584Z,20.84
2023-03-17T11:09:37.582Z,20.17
2023-03-17T11:10:37.576Z,19.87
2023-03-17T11:11:37.580Z,19.09
2023-03-17T11:12:37.591Z,18.65
2023-03-17T11:13:37.556Z,18.62
2023-03-17T11:14:37.538Z,18.57
2023-03-17T11:15:37.526Z,18.22
2023-03-17T11:16:37.539Z,18.10
2023-03-17T11:17:37.469Z,18.06
2023-03-17T11:18:37.500Z,17.76
2023-03-17T11:19:37.464Z,17.76
2023-03-17T11:20:37.449Z,17.24
2023-03-17T11:21:37.466Z,17.55
2023-03-17T11:22:37.429Z,17.65
2023-03-17T11:23:37.440Z,17.52
2023-03-17T11:24:37.408Z,16.68
2023-03-17T11:25:37.388Z,17.18
2023-03-17T11:26:37.373Z,17.01
2023-03-17T11:27:37.363Z,16.86
2023-03-17T11:28:37.347Z,16.86
2023-03-17T11:29:37.464Z,16.78
2023-03-17T11:30:37.349Z,17.04
2023-03-17T11:31:37.401Z,17.29
2023-03-17T11:32:37.399Z,16.80
2023-03-17T11:33:37.324Z,16.91
2023-03-17T11:34:37.321Z,17.13
2023-03-17T11:35:37.349Z,16.60
2023-03-17T11:36:37.321Z,16.17
2023-03-17T11:37:37.294Z,16.79
2023-03-17T11:38:37.289Z,17.57
2023-03-17T11:39:37.265Z,18.11
2023-03-17T11:40:37.261Z,17.98
2023-03-17T11:41:37.262Z,17.54
2023-03-17T11:42:37.238Z,17.57
2023-03-17T11:43:37.326Z,16.91
2023-03-17T11:44:37.221Z,17.45
2023-03-17T11:45:37.287Z,16.93
2023-03-17T11:46:37.216Z,16.52
2023-03-17T11:47:37.653Z,16.80
2023-03-17T11:48:37.220Z,16.90
2023-03-17T11:49:37.183Z,16.96
2023-03-17T11:50:37.172Z,16.90
2023-03-17T11:51:37.152Z,16.18
2023-03-17T11:52:37.173Z,16.55
2023-03-17T11:53:37.155Z,16.60
2023-03-17T11:54:37.159Z,16.12
2023-03-17T11:55:37.167Z,16.28
2023-03-17T11:56:37.169Z,15.96
2023-03-17T11:57:37.158Z,15.95
2023-03-17T11:58:37.176Z,15.93
2023-03-17T11:59:37.173Z,16.30
2023-03-17T12:00:37.171Z,16.43
2023-03-17T12:01:37.183Z,16.00
2023-03-17T12:02:37.197Z,16.36
2023-03-17T12:03:37.236Z,16.02
2023-03-17T12:04:58.188Z,15.63
2023-03-17T12:05:37.159Z,16.20
2023-03-17T12:06:37.183Z,15.87
2023-03-17T12:07:37.176Z,16.12
2023-03-17T12:08:37.178Z,16.24
2023-03-17T12:09:37.173Z,16.60
2023-03-17T12:10:37.191Z,16.70
2023-03-17T12:11:37.160Z,16.76
2023-03-17T12:12:37.151Z,16.91
2023-03-17T12:13:37.153Z,16.93
2023-03-17T12:14:37.147Z,17.06
2023-03-17T12:15:38.678Z,17.24
2023-03-17T12:16:37.120Z,17.19
2023-03-17T12:17:37.111Z,17.39
2023-03-17T12:18:37.098Z,17.23
2023-03-17T12:19:37.107Z,17.33
2023-03-17T12:20:37.054Z,17.06
2023-03-17T12:21:37.128Z,17.43
2023-03-17T12:22:37.066Z,16.86
2023-03-17T12:23:37.031Z,16.92
2023-03-17T12:24:37.043Z,16.76
2023-03-17T12:25:37.039Z,17.09
2023-03-17T12:26:37.036Z,16.95
2023-03-17T12:27:36.999Z,17.00
2023-03-17T12:28:37.057Z,16.89
2023-03-17T12:29:37.008Z,17.21
2023-03-17T12:30:36.998Z,17.08
2023-03-17T12:31:37.001Z,16.27
2023-03-17T12:32:37.060Z,17.00
2023-03-17T12:33:36.976Z,16.88
2023-03-17T12:34:36.994Z,16.94
2023-03-17T12:35:37.005Z,16.94
2023-03-17T12:36:36.938Z,16.17
2023-03-17T12:37:36.928Z,16.15
2023-03-17T12:38:36.925Z,16.11
2023-03-17T12:39:36.920Z,16.48
2023-03-17T12:40:36.917Z,16.34
2023-03-17T12:41:36.914Z,16.09
2023-03-17T12:42:36.911Z,16.17
2023-03-17T12:43:36.888Z,15.91
2023-03-17T12:44:36.893Z,16.06
2023-03-17T12:45:36.885Z,15.93
2023-03-17T12:46:36.944Z,15.88
2023-03-17T12:47:36.898Z,15.75
2023-03-17T12:48:36.895Z,16.13
2023-03-17T12:49:36.894Z,15.90
2023-03-17T12:50:36.873Z,15.71
2023-03-17T12:51:38.578Z,15.88
2023-03-17T12:52:36.875Z,15.50
2023-03-17T12:53:36.861Z,15.79
2023-03-17T12:54:36.849Z,15.77
2023-03-17T12:55:36.840Z,15.98
2023-03-17T12:56:36.831Z,16.01
2023-03-17T12:57:36.805Z,15.92
2023-03-17T12:58:36.825Z,15.90
2023-03-17T12:59:36.999Z,15.95
2023-03-17T13:00:36.801Z,15.47
2023-03-17T13:01:36.791Z,15.22
2023-03-17T13:02:36.754Z,15.83
2023-03-17T13:03:36.912Z,15.84
2023-03-17T13:04:36.761Z,15.83
2023-03-17T13:05:36.719Z,15.89
2023-03-17T13:06:36.705Z,15.65
2023-03-17T13:07:36.685Z,15.91
2023-03-17T13:08:36.693Z,15.80
2023-03-17T13:09:36.697Z,15.21
2023-03-17T13:10:36.695Z,15.75
2023-03-17T13:11:36.682Z,15.39
2023-03-17T13:12:36.685Z,15.27
2023-03-17T13:13:36.690Z,15.34
2023-03-17T13:14:36.654Z,15.46
2023-03-17T13:15:36.629Z,15.78
2023-03-17T13:16:36.722Z,15.56
2023-03-17T13:17:36.601Z,15.75
2023-03-17T13:18:36.618Z,15.63
2023-03-17T13:19:36.583Z,15.66
2023-03-17T13:20:36.558Z,15.53
2023-03-17T13:21:36.641Z,15.60
2023-03-17T13:22:36.520Z,15.68
2023-03-17T13:23:36.492Z,15.60
2023-03-17T13:24:36.488Z,15.63
2023-03-17T13:25:36.450Z,15.26
2023-03-17T13:26:36.445Z,15.57
2023-03-17T13:27:36.415Z,15.60
2023-03-17T13:28:36.400Z,15.30
2023-03-17T13:29:36.397Z,15.56
2023-03-17T13:30:36.378Z,15.50
2023-03-17T13:31:36.440Z,15.24
2023-03-17T13:32:36.378Z,15.50
2023-03-17T13:33:36.321Z,14.95
2023-03-17T13:34:36.307Z,15.14
2023-03-17T13:35:36.315Z,14.90
2023-03-17T13:36:36.278Z,14.87
2023-03-17T13:37:36.265Z,14.87
2023-03-17T13:38:36.232Z,15.07
2023-03-17T13:39:36.222Z,15.07
2023-03-17T13:40:36.232Z,15.33
2023-03-17T13:41:36.203Z,15.36
2023-03-17T13:42:36.168Z,15.32
2023-03-17T13:43:36.159Z,15.32
2023-03-17T13:44:36.140Z,14.90
2023-03-17T13:45:36.110Z,15.07
2023-03-17T13:46:36.089Z,15.17
2023-03-17T13:47:36.074Z,15.16
2023-03-17T13:48:36.036Z,15.31
2023-03-17T13:49:36.012Z,15.02
2023-03-17T13:50:36.013Z,15.17
2023-03-17T13:51:36.001Z,15.31
2023-03-17T13:52:35.947Z,15.18
2023-03-17T13:53:35.920Z,14.85
2023-03-17T13:54:35.907Z,14.80
2023-03-17T13:55:35.961Z,15.08
2023-03-17T13:56:35.850Z,14.79
2023-03-17T13:57:35.835Z,15.07
2023-03-17T13:58:35.836Z,15.10
2023-03-17T13:59:35.800Z,15.22
2023-03-17T14:00:35.837Z,15.36
2023-03-17T14:01:35.763Z,15.66
2023-03-17T14:02:35.745Z,16.37
2023-03-17T14:03:35.778Z,17.41
2023-03-17T14:04:35.706Z,17.91
2023-03-17T14:05:35.711Z,18.47
2023-03-17T14:06:35.668Z,18.91
2023-03-17T14:07:35.646Z,19.33
2023-03-17T14:08:35.644Z,19.39
2023-03-17T14:09:35.612Z,19.47
2023-03-17T14:10:35.604Z,19.56
2023-03-17T14:11:35.575Z,19.45
2023-03-17T14:12:35.573Z,19.40
2023-03-17T14:13:35.532Z,19.24
2023-03-17T14:14:35.509Z,19.11
2023-03-17T14:15:35.485Z,19.00
2023-03-17T14:16:35.492Z,18.88
2023-03-17T14:17:35.461Z,18.89
2023-03-17T14:18:35.407Z,18.73
2023-03-17T14:19:35.382Z,18.69
2023-03-17T14:20:35.377Z,18.61
2023-03-17T14:21:35.324Z,18.51
2023-03-17T14:22:35.312Z,18.40
2023-03-17T14:23:35.283Z,18.32
2023-03-17T14:24:35.260Z,18.31
2023-03-17T14:25:35.237Z,18.21
2023-03-17T14:26:35.215Z,18.13
2023-03-17T14:27:35.194Z,18.12
2023-03-17T14:28:35.166Z,17.98
2023-03-17T14:29:35.139Z,18.02
2023-03-17T14:30:35.146Z,17.93
2023-03-17T14:31:35.160Z,17.82
2023-03-17T14:32:35.133Z,17.75
2023-03-17T14:33:35.066Z,17.77
2023-03-17T14:34:35.032Z,17.69
2023-03-17T14:35:35.060Z,17.62
2023-03-17T14:36:34.969Z,17.65
2023-03-17T14:37:34.949Z,17.58
2023-03-17T14:38:34.923Z,17.50
2023-03-17T14:39:34.917Z,17.40
2023-03-17T14:40:34.885Z,17.38
2023-03-17T14:41:34.853Z,17.16
2023-03-17T14:42:34.821Z,17.34
2023-03-17T14:43:34.813Z,17.29
2023-03-17T14:44:34.787Z,17.25
2023-03-17T14:45:34.880Z,17.21
2023-03-17T14:46:34.752Z,17.31
2023-03-17T14:47:34.752Z,17.36
2023-03-17T14:48:34.685Z,17.31
2023-03-17T14:49:34.664Z,17.25
2023-03-17T14:50:34.647Z,17.28
2023-03-17T14:51:34.597Z,17.30
2023-03-17T14:52:34.597Z,17.23
2023-03-17T14:53:34.551Z,17.22
2023-03-17T14:54:34.519Z,17.19
2023-03-17T14:55:34.526Z,17.24
2023-03-17T14:56:34.468Z,17.17
2023-03-17T14:57:34.440Z,17.07
2023-03-17T14:58:34.422Z,17.13
2023-03-17T14:59:34.401Z,17.07
2023-03-17T15:00:34.392Z,17.05
2023-03-17T15:01:34.427Z,17.16
2023-03-17T15:02:34.584Z,17.10
2023-03-17T15:03:34.294Z,17.08
2023-03-17T15:04:34.273Z,17.10
2023-03-17T15:05:34.225Z,17.10
2023-03-17T15:06:36.836Z,17.10
2023-03-17T15:07:34.166Z,17.10
2023-03-17T15:08:36.215Z,17.12
2023-03-17T15:09:34.104Z,17.13
2023-03-17T15:10:34.480Z,17.12
2023-03-17T15:11:34.067Z,17.07
2023-03-17T15:12:34.034Z,17.13
2023-03-17T15:13:34.003Z,17.18
2023-03-17T15:14:33.962Z,17.24
2023-03-17T15:15:33.956Z,17.26
2023-03-17T15:16:33.948Z,17.26
2023-03-17T15:17:33.888Z,17.26
2023-03-17T15:18:33.853Z,17.27
2023-03-17T15:19:33.844Z,17.27
2023-03-17T15:20:34.098Z,17.30
2023-03-17T15:21:33.899Z,17.27
2023-03-17T15:22:33.931Z,17.27
2023-03-17T15:23:33.955Z,17.32
2023-03-17T15:24:33.991Z,17.34
2023-03-17T15:25:34.036Z,17.36
2023-03-17T15:26:34.078Z,17.43
2023-03-17T15:27:34.097Z,17.45
2023-03-17T15:28:34.144Z,17.38
2023-03-17T15:29:34.169Z,17.35
2023-03-17T15:30:46.241Z,17.43
2023-03-17T15:31:35.262Z,17.47
2023-03-17T15:32:34.149Z,17.47
2023-03-17T15:33:34.101Z,17.47
2023-03-17T15:34:34.085Z,17.51
2023-03-17T15:35:34.087Z,17.47
2023-03-17T15:36:34.095Z,17.52
2023-03-17T15:37:34.013Z,17.55
2023-03-17T15:38:33.976Z,17.52
2023-03-17T15:39:33.948Z,17.54
2023-03-17T15:40:33.922Z,17.58